sensor_id;sensor_type;location;lat;lon;timestamp;pressure;altitude;pressure_sealevel;temperature;humidity
55187;BME280;55457;52.002;5.464;2023-04-30T00:00:05;102173.03;;;20.22;39.36
55187;BME280;55457;52.002;5.464;2023-04-30T00:02:33;102174.91;;;20.21;39.34
55187;BME280;55457;52.002;5.464;2023-04-30T00:04:58;102167.84;;;20.20;39.23
55187;BME280;55457;52.002;5.464;2023-04-30T00:07:24;102168.69;;;20.21;39.33
55187;BME280;55457;52.002;5.464;2023-04-30T00:09:49;102163.25;;;20.21;39.30
55187;BME280;55457;52.002;5.464;2023-04-30T00:12:15;102161.56;;;20.20;39.38
55187;BME280;55457;52.002;5.464;2023-04-30T00:14:41;102161.56;;;20.20;39.23
55187;BME280;55457;52.002;5.464;2023-04-30T00:17:06;102162.63;;;20.19;39.30
55187;BME280;55457;52.002;5.464;2023-04-30T00:19:31;102158.88;;;20.20;39.17
55187;BME280;55457;52.002;5.464;2023-04-30T00:21:56;102152.84;;;20.18;39.32
55187;BME280;55457;52.002;5.464;2023-04-30T00:24:22;102148.25;;;20.18;39.31
55187;BME280;55457;52.002;5.464;2023-04-30T00:26:47;102152.00;;;20.17;39.44
55187;BME280;55457;52.002;5.464;2023-04-30T00:29:12;102152.84;;;20.18;39.49
55187;BME280;55457;52.002;5.464;2023-04-30T00:31:38;102151.19;;;20.17;39.46
55187;BME280;55457;52.002;5.464;2023-04-30T00:34:03;102152.00;;;20.17;39.36
55187;BME280;55457;52.002;5.464;2023-04-30T00:36:28;102154.94;;;20.16;39.36
55187;BME280;55457;52.002;5.464;2023-04-30T00:38:55;102162.00;;;20.17;39.38
55187;BME280;55457;52.002;5.464;2023-04-30T00:41:21;102163.91;;;20.16;39.28
55187;BME280;55457;52.002;5.464;2023-04-30T00:43:48;102161.19;;;20.16;39.33
55187;BME280;55457;52.002;5.464;2023-04-30T00:46:13;102163.06;;;20.16;39.16
55187;BME280;55457;52.002;5.464;2023-04-30T00:48:39;102172.84;;;20.17;39.60
55187;BME280;55457;52.002;5.464;2023-04-30T00:51:04;102174.72;;;20.16;39.44
55187;BME280;55457;52.002;5.464;2023-04-30T00:53:30;102177.44;;;20.16;39.35
55187;BME280;55457;52.002;5.464;2023-04-30T00:55:56;102182.00;;;20.16;39.29
55187;BME280;55457;52.002;5.464;2023-04-30T00:58:21;102176.59;;;20.16;39.36
55187;BME280;55457;52.002;5.464;2023-04-30T01:00:47;102182.84;;;20.16;39.36
55187;BME280;55457;52.002;5.464;2023-04-30T01:03:13;102175.75;;;20.15;39.46
55187;BME280;55457;52.002;5.464;2023-04-30T01:05:39;102180.31;;;20.15;39.33
55187;BME280;55457;52.002;5.464;2023-04-30T01:08:04;102173.88;;;20.16;39.43
55187;BME280;55457;52.002;5.464;2023-04-30T01:10:36;102176.59;;;20.16;39.46
55187;BME280;55457;52.002;5.464;2023-04-30T01:15:45;102176.78;;;20.14;39.40
55187;BME280;55457;52.002;5.464;2023-04-30T01:20:53;102178.66;;;20.14;39.38
55187;BME280;55457;52.002;5.464;2023-04-30T01:24:00;102178.66;;;20.14;39.34
55187;BME280;55457;52.002;5.464;2023-04-30T01:29:29;102175.13;;;20.13;39.65
55187;BME280;55457;52.002;5.464;2023-04-30T01:31:56;102169.94;;;20.12;39.31
55187;BME280;55457;52.002;5.464;2023-04-30T01:34:21;102182.41;;;20.13;39.35
55187;BME280;55457;52.002;5.464;2023-04-30T01:42:14;102180.75;;;20.12;39.34
55187;BME280;55457;52.002;5.464;2023-04-30T01:45:15;102180.75;;;20.12;39.51
55187;BME280;55457;52.002;5.464;2023-04-30T01:48:05;102179.09;;;20.11;39.36
55187;BME280;55457;52.002;5.464;2023-04-30T01:50:47;102184.50;;;20.11;39.28
55187;BME280;55457;52.002;5.464;2023-04-30T01:53:19;102185.53;;;20.10;39.46
55187;BME280;55457;52.002;5.464;2023-04-30T01:55:56;102189.09;;;20.10;39.45
55187;BME280;55457;52.002;5.464;2023-04-30T01:58:22;102198.03;;;20.11;39.45
55187;BME280;55457;52.002;5.464;2023-04-30T02:00:48;102193.66;;;20.10;39.49
55187;BME280;55457;52.002;5.464;2023-04-30T02:03:14;102192.81;;;20.09;39.39
55187;BME280;55457;52.002;5.464;2023-04-30T02:05:39;102183.88;;;20.08;39.44
55187;BME280;55457;52.002;5.464;2023-04-30T02:08:05;102192.00;;;20.08;39.36
55187;BME280;55457;52.002;5.464;2023-04-30T02:10:31;102193.66;;;20.10;39.34
55187;BME280;55457;52.002;5.464;2023-04-30T02:12:56;102199.06;;;20.10;39.42
55187;BME280;55457;52.002;5.464;2023-04-30T02:15:21;102193.03;;;20.07;39.36
55187;BME280;55457;52.002;5.464;2023-04-30T02:17:47;102190.31;;;20.07;39.36
55187;BME280;55457;52.002;5.464;2023-04-30T02:20:13;102193.03;;;20.07;39.35
55187;BME280;55457;52.002;5.464;2023-04-30T02:22:38;102193.03;;;20.07;39.44
55187;BME280;55457;52.002;5.464;2023-04-30T02:25:04;102191.16;;;20.08;39.32
55187;BME280;55457;52.002;5.464;2023-04-30T02:27:31;102188.66;;;20.06;39.62
55187;BME280;55457;52.002;5.464;2023-04-30T02:29:58;102191.38;;;20.06;39.43
55187;BME280;55457;52.002;5.464;2023-04-30T02:32:23;102196.56;;;20.08;39.44
55187;BME280;55457;52.002;5.464;2023-04-30T02:34:49;102191.38;;;20.06;39.33
55187;BME280;55457;52.002;5.464;2023-04-30T02:37:14;102194.09;;;20.06;39.42
55187;BME280;55457;52.002;5.464;2023-04-30T02:39:40;102192.22;;;20.07;39.40
55187;BME280;55457;52.002;5.464;2023-04-30T02:42:06;102188.66;;;20.06;39.35
55187;BME280;55457;52.002;5.464;2023-04-30T02:44:31;102182.44;;;20.06;39.29
55187;BME280;55457;52.002;5.464;2023-04-30T02:46:57;102180.56;;;20.06;39.38
55187;BME280;55457;52.002;5.464;2023-04-30T02:49:24;102177.84;;;20.06;39.38
55187;BME280;55457;52.002;5.464;2023-04-30T02:51:49;102174.50;;;20.04;39.25
55187;BME280;55457;52.002;5.464;2023-04-30T02:54:15;102175.34;;;20.05;39.42
55187;BME280;55457;52.002;5.464;2023-04-30T02:56:40;102176.19;;;20.05;39.36
55187;BME280;55457;52.002;5.464;2023-04-30T02:59:06;102171.78;;;20.04;39.46
55187;BME280;55457;52.002;5.464;2023-04-30T03:01:31;102174.50;;;20.04;39.23
55187;BME280;55457;52.002;5.464;2023-04-30T03:03:56;102167.44;;;20.03;39.39
55187;BME280;55457;52.002;5.464;2023-04-30T03:06:23;102172.84;;;20.03;39.33
55187;BME280;55457;52.002;5.464;2023-04-30T03:08:48;102167.44;;;20.03;39.43
55187;BME280;55457;52.002;5.464;2023-04-30T03:11:14;102176.38;;;20.04;39.20
55187;BME280;55457;52.002;5.464;2023-04-30T03:13:40;102178.25;;;20.03;39.48
55187;BME280;55457;52.002;5.464;2023-04-30T03:16:05;102178.25;;;20.03;39.48
55187;BME280;55457;52.002;5.464;2023-04-30T03:18:31;102182.84;;;20.03;39.29
55187;BME280;55457;52.002;5.464;2023-04-30T03:20:57;102178.25;;;20.03;39.39
55187;BME280;55457;52.002;5.464;2023-04-30T03:23:23;102176.59;;;20.02;39.37
55187;BME280;55457;52.002;5.464;2023-04-30T03:25:48;102177.63;;;20.01;39.26
55187;BME280;55457;52.002;5.464;2023-04-30T03:28:15;102173.88;;;20.02;39.42
55187;BME280;55457;52.002;5.464;2023-04-30T03:30:40;102178.69;;;20.00;39.53
55187;BME280;55457;52.002;5.464;2023-04-30T03:33:06;102172.22;;;20.01;39.37
55187;BME280;55457;52.002;5.464;2023-04-30T03:35:32;102168.69;;;20.01;39.46
55187;BME280;55457;52.002;5.464;2023-04-30T03:37:59;102164.31;;;20.00;39.33
55187;BME280;55457;52.002;5.464;2023-04-30T03:40:24;102164.09;;;20.01;39.51
55187;BME280;55457;52.002;5.464;2023-04-30T03:42:49;102161.63;;;20.00;39.28
55187;BME280;55457;52.002;5.464;2023-04-30T03:45:16;102164.09;;;20.01;39.54
55187;BME280;55457;52.002;5.464;2023-04-30T03:47:42;102163.50;;;19.99;39.32
55187;BME280;55457;52.002;5.464;2023-04-30T03:50:08;102159.94;;;19.99;39.30
55187;BME280;55457;52.002;5.464;2023-04-30T03:52:34;102168.03;;;19.99;39.37
55187;BME280;55457;52.002;5.464;2023-04-30T03:55:01;102165.34;;;19.99;39.33
55187;BME280;55457;52.002;5.464;2023-04-30T03:57:26;102166.19;;;19.99;39.40
55187;BME280;55457;52.002;5.464;2023-04-30T03:59:52;102165.34;;;19.99;39.35
55187;BME280;55457;52.002;5.464;2023-04-30T04:02:17;102159.09;;;19.98;39.42
55187;BME280;55457;52.002;5.464;2023-04-30T04:04:43;102160.78;;;19.99;39.33
55187;BME280;55457;52.002;5.464;2023-04-30T04:07:08;102159.09;;;19.98;39.37
55187;BME280;55457;52.002;5.464;2023-04-30T04:09:35;102157.44;;;19.97;39.33
55187;BME280;55457;52.002;5.464;2023-04-30T04:12:01;102153.69;;;19.98;39.35
55187;BME280;55457;52.002;5.464;2023-04-30T04:14:27;102163.69;;;19.98;39.42
55187;BME280;55457;52.002;5.464;2023-04-30T04:16:52;102158.28;;;19.98;39.42
55187;BME280;55457;52.002;5.464;2023-04-30T04:19:17;102164.50;;;19.98;39.55
55187;BME280;55457;52.002;5.464;2023-04-30T04:21:43;102167.44;;;19.97;39.39
55187;BME280;55457;52.002;5.464;2023-04-30T04:24:08;102164.72;;;19.97;39.45
55187;BME280;55457;52.002;5.464;2023-04-30T04:26:35;102165.78;;;19.96;39.30
55187;BME280;55457;52.002;5.464;2023-04-30T04:29:01;102170.13;;;19.97;39.49
55187;BME280;55457;52.002;5.464;2023-04-30T04:31:28;102170.13;;;19.97;39.25
55187;BME280;55457;52.002;5.464;2023-04-30T04:33:53;102170.13;;;19.97;39.50
55187;BME280;55457;52.002;5.464;2023-04-30T04:36:23;102172.03;;;19.96;39.33
55187;BME280;55457;52.002;5.464;2023-04-30T04:38:49;102172.03;;;19.96;39.31
55187;BME280;55457;52.002;5.464;2023-04-30T04:41:14;102177.44;;;19.96;39.34
55187;BME280;55457;52.002;5.464;2023-04-30T04:43:40;102178.47;;;19.95;39.40
55187;BME280;55457;52.002;5.464;2023-04-30T04:46:06;102179.31;;;19.96;39.35
55187;BME280;55457;52.002;5.464;2023-04-30T04:48:33;102180.34;;;19.95;39.50
55187;BME280;55457;52.002;5.464;2023-04-30T04:50:58;102174.13;;;19.94;39.49
55187;BME280;55457;52.002;5.464;2023-04-30T04:53:23;102171.41;;;19.94;39.22
55187;BME280;55457;52.002;5.464;2023-04-30T04:55:49;102170.34;;;19.95;39.56
55187;BME280;55457;52.002;5.464;2023-04-30T04:58:14;102164.31;;;19.93;39.47
55187;BME280;55457;52.002;5.464;2023-04-30T05:00:39;102159.53;;;19.95;39.40
55187;BME280;55457;52.002;5.464;2023-04-30T05:03:05;102154.13;;;19.95;39.36
55187;BME280;55457;52.002;5.464;2023-04-30T05:05:30;102167.66;;;19.95;39.27
55187;BME280;55457;52.002;5.464;2023-04-30T05:07:56;102164.31;;;19.93;39.40
55187;BME280;55457;52.002;5.464;2023-04-30T05:10:21;102159.72;;;19.94;39.33
55187;BME280;55457;52.002;5.464;2023-04-30T05:12:46;102169.72;;;19.93;39.40
55187;BME280;55457;52.002;5.464;2023-04-30T05:15:12;102167.00;;;19.93;39.45
55187;BME280;55457;52.002;5.464;2023-04-30T05:17:37;102167.84;;;19.94;39.51
55187;BME280;55457;52.002;5.464;2023-04-30T05:20:02;102171.41;;;19.94;39.37
55187;BME280;55457;52.002;5.464;2023-04-30T05:22:28;102170.34;;;19.95;39.33
55187;BME280;55457;52.002;5.464;2023-04-30T05:24:53;102169.72;;;19.93;39.47
55187;BME280;55457;52.002;5.464;2023-04-30T05:27:19;102179.53;;;19.94;39.42
55187;BME280;55457;52.002;5.464;2023-04-30T05:29:44;102176.81;;;19.94;39.08
55187;BME280;55457;52.002;5.464;2023-04-30T05:32:09;102175.13;;;19.93;39.38
55187;BME280;55457;52.002;5.464;2023-04-30T05:34:35;102179.53;;;19.94;39.40
55187;BME280;55457;52.002;5.464;2023-04-30T05:37:01;102172.25;;;19.95;39.39
55187;BME280;55457;52.002;5.464;2023-04-30T05:39:26;102171.59;;;19.93;39.24
55187;BME280;55457;52.002;5.464;2023-04-30T05:41:51;102171.59;;;19.93;39.43
55187;BME280;55457;52.002;5.464;2023-04-30T05:44:16;102175.13;;;19.93;39.40
55187;BME280;55457;52.002;5.464;2023-04-30T05:46:42;102182.41;;;19.93;39.45
55187;BME280;55457;52.002;5.464;2023-04-30T05:49:07;102179.72;;;19.93;39.36
55187;BME280;55457;52.002;5.464;2023-04-30T05:51:33;102180.75;;;19.92;39.35
55187;BME280;55457;52.002;5.464;2023-04-30T05:53:58;102181.59;;;19.92;39.45
55187;BME280;55457;52.002;5.464;2023-04-30T05:56:24;102187.00;;;19.92;39.48
55187;BME280;55457;52.002;5.464;2023-04-30T05:58:50;102194.06;;;19.93;39.31
55187;BME280;55457;52.002;5.464;2023-04-30T06:01:18;102194.06;;;19.93;39.58
55187;BME280;55457;52.002;5.464;2023-04-30T06:03:43;102194.06;;;19.93;39.37
55187;BME280;55457;52.002;5.464;2023-04-30T06:06:08;102192.41;;;19.92;39.29
55187;BME280;55457;52.002;5.464;2023-04-30T06:08:34;102193.25;;;19.93;39.49
55187;BME280;55457;52.002;5.464;2023-04-30T06:10:59;102193.25;;;19.93;39.47
55187;BME280;55457;52.002;5.464;2023-04-30T06:13:25;102200.31;;;19.94;39.57
55187;BME280;55457;52.002;5.464;2023-04-30T06:15:50;102200.31;;;19.94;39.38
55187;BME280;55457;52.002;5.464;2023-04-30T06:18:15;102204.88;;;19.93;39.45
55187;BME280;55457;52.002;5.464;2023-04-30T06:20:41;102201.16;;;19.94;39.48
55187;BME280;55457;52.002;5.464;2023-04-30T06:23:07;102197.41;;;19.95;39.47
55187;BME280;55457;52.002;5.464;2023-04-30T06:25:32;102186.59;;;19.95;39.42
55187;BME280;55457;52.002;5.464;2023-04-30T06:27:58;102182.84;;;19.96;39.46
55187;BME280;55457;52.002;5.464;2023-04-30T06:30:23;102192.84;;;19.96;39.54
55187;BME280;55457;52.002;5.464;2023-04-30T06:32:48;102189.09;;;19.97;39.52
55187;BME280;55457;52.002;5.464;2023-04-30T06:35:14;102189.91;;;19.97;39.33
55187;BME280;55457;52.002;5.464;2023-04-30T06:37:39;102193.66;;;19.96;39.39
55187;BME280;55457;52.002;5.464;2023-04-30T06:40:05;102196.97;;;19.98;39.42
55187;BME280;55457;52.002;5.464;2023-04-30T06:42:31;102197.81;;;19.99;39.57
55187;BME280;55457;52.002;5.464;2023-04-30T06:44:59;102202.22;;;20.00;39.42
55187;BME280;55457;52.002;5.464;2023-04-30T06:47:26;102205.75;;;20.00;39.34
55187;BME280;55457;52.002;5.464;2023-04-30T06:49:51;102207.41;;;20.01;39.42
55187;BME280;55457;52.002;5.464;2023-04-30T06:52:17;102209.06;;;20.02;39.37
55187;BME280;55457;52.002;5.464;2023-04-30T06:54:42;102209.88;;;20.03;39.36
55187;BME280;55457;52.002;5.464;2023-04-30T06:57:07;102205.31;;;20.03;39.35
55187;BME280;55457;52.002;5.464;2023-04-30T06:59:33;102208.00;;;20.03;39.41
55187;BME280;55457;52.002;5.464;2023-04-30T07:01:58;102209.88;;;20.03;39.43
55187;BME280;55457;52.002;5.464;2023-04-30T07:04:24;102212.38;;;20.04;39.32
55187;BME280;55457;52.002;5.464;2023-04-30T07:06:50;102213.44;;;20.03;39.36
55187;BME280;55457;52.002;5.464;2023-04-30T07:09:15;102217.78;;;20.04;39.48
55187;BME280;55457;52.002;5.464;2023-04-30T07:11:41;102219.50;;;20.05;39.29
55187;BME280;55457;52.002;5.464;2023-04-30T07:14:06;102220.31;;;20.06;39.68
55187;BME280;55457;52.002;5.464;2023-04-30T07:16:32;102219.50;;;20.05;39.55
55187;BME280;55457;52.002;5.464;2023-04-30T07:18:57;102220.31;;;20.06;39.50
55187;BME280;55457;52.002;5.464;2023-04-30T07:21:24;102225.50;;;20.07;39.46
55187;BME280;55457;52.002;5.464;2023-04-30T07:23:50;102228.22;;;20.07;39.36
55187;BME280;55457;52.002;5.464;2023-04-30T07:26:15;102216.56;;;20.07;39.46
55187;BME280;55457;52.002;5.464;2023-04-30T07:28:41;102221.75;;;20.08;39.44
55187;BME280;55457;52.002;5.464;2023-04-30T07:31:06;102214.69;;;20.07;39.38
55187;BME280;55457;52.002;5.464;2023-04-30T07:33:31;102215.28;;;20.10;39.42
55187;BME280;55457;52.002;5.464;2023-04-30T07:35:57;102219.69;;;20.11;39.40
55187;BME280;55457;52.002;5.464;2023-04-30T07:38:23;102217.00;;;20.11;39.45
55187;BME280;55457;52.002;5.464;2023-04-30T07:40:49;102214.91;;;20.13;39.42
55187;BME280;55457;52.002;5.464;2023-04-30T07:43:14;102208.66;;;20.12;39.37
55187;BME280;55457;52.002;5.464;2023-04-30T07:45:40;102215.72;;;20.13;39.51
55187;BME280;55457;52.002;5.464;2023-04-30T07:48:06;102211.13;;;20.14;39.34
55187;BME280;55457;52.002;5.464;2023-04-30T07:50:31;102210.09;;;20.15;39.39
55187;BME280;55457;52.002;5.464;2023-04-30T07:53:00;102203.66;;;20.16;39.47
55187;BME280;55457;52.002;5.464;2023-04-30T07:55:25;102209.06;;;20.16;39.50
55187;BME280;55457;52.002;5.464;2023-04-30T07:57:50;102208.03;;;20.17;39.39
55187;BME280;55457;52.002;5.464;2023-04-30T08:00:16;102206.97;;;20.18;39.50
55187;BME280;55457;52.002;5.464;2023-04-30T08:02:41;102204.88;;;20.20;39.40
55187;BME280;55457;52.002;5.464;2023-04-30T08:05:09;102201.16;;;20.21;39.47
55187;BME280;55457;52.002;5.464;2023-04-30T08:07:35;102207.41;;;20.21;39.40
55187;BME280;55457;52.002;5.464;2023-04-30T08:10:00;102200.94;;;20.22;39.41
55187;BME280;55457;52.002;5.464;2023-04-30T08:12:26;102211.56;;;20.24;39.32
55187;BME280;55457;52.002;5.464;2023-04-30T08:14:59;102206.13;;;20.24;39.58
55187;BME280;55457;52.002;5.464;2023-04-30T08:17:25;102212.38;;;20.24;39.47
55187;BME280;55457;52.002;5.464;2023-04-30T08:19:50;102208.63;;;20.25;39.54
55187;BME280;55457;52.002;5.464;2023-04-30T08:22:16;102211.97;;;20.27;39.47
55187;BME280;55457;52.002;5.464;2023-04-30T08:24:41;102208.22;;;20.28;39.23
55187;BME280;55457;52.002;5.464;2023-04-30T08:27:06;102208.22;;;20.28;39.31
55187;BME280;55457;52.002;5.464;2023-04-30T08:29:32;102209.69;;;20.31;39.50
55187;BME280;55457;52.002;5.464;2023-04-30T08:32:01;102211.34;;;20.32;39.39
55187;BME280;55457;52.002;5.464;2023-04-30T08:34:28;102211.97;;;20.34;39.38
55187;BME280;55457;52.002;5.464;2023-04-30T08:36:53;102206.13;;;20.37;39.26
55187;BME280;55457;52.002;5.464;2023-04-30T08:39:18;102203.22;;;20.39;39.37
55187;BME280;55457;52.002;5.464;2023-04-30T08:41:45;102211.94;;;20.41;39.33
55187;BME280;55457;52.002;5.464;2023-04-30T08:44:15;102206.34;;;20.42;39.22
55187;BME280;55457;52.002;5.464;2023-04-30T08:46:42;102203.19;;;20.45;39.39
55187;BME280;55457;52.002;5.464;2023-04-30T08:49:09;102203.84;;;20.47;39.07
55187;BME280;55457;52.002;5.464;2023-04-30T08:51:35;102206.34;;;20.49;39.19
55187;BME280;55457;52.002;5.464;2023-04-30T08:54:00;102202.38;;;20.51;39.07
55187;BME280;55457;52.002;5.464;2023-04-30T08:56:26;102207.38;;;20.54;39.10
55187;BME280;55457;52.002;5.464;2023-04-30T08:58:53;102198.19;;;20.55;39.24
55187;BME280;55457;52.002;5.464;2023-04-30T09:01:18;102211.13;;;20.60;39.23
55187;BME280;55457;52.002;5.464;2023-04-30T09:03:44;102209.88;;;20.63;39.27
55187;BME280;55457;52.002;5.464;2023-04-30T09:06:14;102204.00;;;20.66;39.14
55187;BME280;55457;52.002;5.464;2023-04-30T09:08:41;102191.09;;;20.68;39.13
55187;BME280;55457;52.002;5.464;2023-04-30T09:11:27;102192.31;;;20.72;39.04
55187;BME280;55457;52.002;5.464;2023-04-30T09:13:54;102186.72;;;20.73;39.01
55187;BME280;55457;52.002;5.464;2023-04-30T09:16:22;102194.41;;;20.76;38.90
55187;BME280;55457;52.002;5.464;2023-04-30T09:18:48;102189.38;;;20.80;38.99
55187;BME280;55457;52.002;5.464;2023-04-30T09:21:14;102182.69;;;20.82;39.04
55187;BME280;55457;52.002;5.464;2023-04-30T09:23:56;102188.53;;;20.86;39.10
55187;BME280;55457;52.002;5.464;2023-04-30T09:26:31;102189.78;;;20.90;38.96
55187;BME280;55457;52.002;5.464;2023-04-30T09:28:57;102192.88;;;20.94;39.12
55187;BME280;55457;52.002;5.464;2023-04-30T09:31:23;102185.97;;;20.98;38.90
55187;BME280;55457;52.002;5.464;2023-04-30T09:33:50;102187.44;;;21.00;38.98
55187;BME280;55457;52.002;5.464;2023-04-30T09:36:16;102182.63;;;21.02;38.63
55187;BME280;55457;52.002;5.464;2023-04-30T09:38:42;102177.59;;;21.06;38.99
55187;BME280;55457;52.002;5.464;2023-04-30T09:41:26;102182.38;;;21.10;38.77
55187;BME280;55457;52.002;5.464;2023-04-30T09:43:56;102180.06;;;21.14;38.68
55187;BME280;55457;52.002;5.464;2023-04-30T09:46:29;102177.75;;;21.18;38.80
55187;BME280;55457;52.002;5.464;2023-04-30T09:48:59;102175.22;;;21.23;38.82
55187;BME280;55457;52.002;5.464;2023-04-30T09:51:25;102175.84;;;21.25;38.68
55187;BME280;55457;52.002;5.464;2023-04-30T09:53:51;102173.34;;;21.23;38.62
55187;BME280;55457;52.002;5.464;2023-04-30T09:56:20;102162.91;;;21.27;38.60
55187;BME280;55457;52.002;5.464;2023-04-30T09:58:50;102173.75;;;21.27;38.62
55187;BME280;55457;52.002;5.464;2023-04-30T10:01:17;102169.16;;;21.27;38.54
55187;BME280;55457;52.002;5.464;2023-04-30T10:03:44;102164.16;;;21.31;38.47
55187;BME280;55457;52.002;5.464;2023-04-30T10:06:12;102162.66;;;21.35;38.56
55187;BME280;55457;52.002;5.464;2023-04-30T10:08:39;102166.59;;;21.39;38.74
55187;BME280;55457;52.002;5.464;2023-04-30T10:11:06;102151.81;;;21.35;38.35
55187;BME280;55457;52.002;5.464;2023-04-30T10:16:13;102147.41;;;21.41;38.69
55187;BME280;55457;52.002;5.464;2023-04-30T10:18:45;102144.06;;;21.39;38.63
55187;BME280;55457;52.002;5.464;2023-04-30T10:21:12;102147.78;;;21.44;38.53
55187;BME280;55457;52.002;5.464;2023-04-30T10:23:39;102151.50;;;21.50;38.58
55187;BME280;55457;52.002;5.464;2023-04-30T10:26:11;102137.28;;;21.54;38.42
55187;BME280;55457;52.002;5.464;2023-04-30T10:28:37;102138.53;;;21.58;38.25
55187;BME280;55457;52.002;5.464;2023-04-30T10:31:04;102133.25;;;21.63;38.40
55187;BME280;55457;52.002;5.464;2023-04-30T10:33:33;102134.25;;;21.69;38.25
55187;BME280;55457;52.002;5.464;2023-04-30T10:36:04;102136.31;;;21.74;38.31
55187;BME280;55457;52.002;5.464;2023-04-30T10:38:31;102130.22;;;21.78;38.38
55187;BME280;55457;52.002;5.464;2023-04-30T10:41:00;102132.47;;;21.81;38.41
55187;BME280;55457;52.002;5.464;2023-04-30T10:43:29;102135.81;;;21.83;38.07
55187;BME280;55457;52.002;5.464;2023-04-30T10:45:56;102127.84;;;21.88;38.25
55187;BME280;55457;52.002;5.464;2023-04-30T10:48:23;102129.88;;;21.93;38.05
55187;BME280;55457;52.002;5.464;2023-04-30T10:50:54;102125.66;;;21.97;38.21
55187;BME280;55457;52.002;5.464;2023-04-30T10:53:20;102121.44;;;22.01;38.09
55187;BME280;55457;52.002;5.464;2023-04-30T10:56:00;102113.47;;;22.06;37.99
55187;BME280;55457;52.002;5.464;2023-04-30T10:58:32;102118.50;;;22.03;38.05
55187;BME280;55457;52.002;5.464;2023-04-30T11:01:11;102109.31;;;22.04;37.95
55187;BME280;55457;52.002;5.464;2023-04-30T11:03:39;102111.41;;;22.02;38.30
55187;BME280;55457;52.002;5.464;2023-04-30T11:06:11;102102.28;;;21.96;38.16
55187;BME280;55457;52.002;5.464;2023-04-30T11:08:38;102104.84;;;21.91;38.07
55187;BME280;55457;52.002;5.464;2023-04-30T11:11:04;102104.41;;;21.94;38.08
55187;BME280;55457;52.002;5.464;2023-04-30T11:13:59;102098.31;;;21.99;37.85
55187;BME280;55457;52.002;5.464;2023-04-30T11:16:29;102092.41;;;22.02;38.17
55187;BME280;55457;52.002;5.464;2023-04-30T11:19:11;102091.75;;;22.06;38.15
55187;BME280;55457;52.002;5.464;2023-04-30T11:21:41;102081.28;;;22.10;37.87
55187;BME280;55457;52.002;5.464;2023-04-30T11:24:06;102077.09;;;22.14;38.15
55187;BME280;55457;52.002;5.464;2023-04-30T11:27:03;102083.69;;;22.18;37.93
55187;BME280;55457;52.002;5.464;2023-04-30T11:29:33;102080.09;;;22.24;37.91
55187;BME280;55457;52.002;5.464;2023-04-30T11:32:00;102077.75;;;22.28;38.22
55187;BME280;55457;52.002;5.464;2023-04-30T11:34:25;102074.44;;;22.26;38.09
55187;BME280;55457;52.002;5.464;2023-04-30T11:36:53;102078.22;;;22.25;38.14
55187;BME280;55457;52.002;5.464;2023-04-30T11:39:23;102069.41;;;22.29;37.80
55187;BME280;55457;52.002;5.464;2023-04-30T11:41:48;102060.53;;;22.34;37.73
55187;BME280;55457;52.002;5.464;2023-04-30T11:44:21;102065.53;;;22.37;37.67
55187;BME280;55457;52.002;5.464;2023-04-30T11:46:48;102056.78;;;22.35;37.75
55187;BME280;55457;52.002;5.464;2023-04-30T11:49:13;102049.81;;;22.39;37.66
55187;BME280;55457;52.002;5.464;2023-04-30T11:51:40;102044.78;;;22.43;38.03
55187;BME280;55457;52.002;5.464;2023-04-30T11:54:07;102046.06;;;22.40;37.66
55187;BME280;55457;52.002;5.464;2023-04-30T11:56:36;102053.47;;;22.33;37.96
55187;BME280;55457;52.002;5.464;2023-04-30T11:59:09;102050.97;;;22.31;37.83
55187;BME280;55457;52.002;5.464;2023-04-30T12:01:34;102048.41;;;22.36;37.94
55187;BME280;55457;52.002;5.464;2023-04-30T12:04:01;102039.81;;;22.39;37.84
55187;BME280;55457;52.002;5.464;2023-04-30T12:06:28;102045.00;;;22.41;37.72
55187;BME280;55457;52.002;5.464;2023-04-30T12:08:56;102039.72;;;22.46;37.61
55187;BME280;55457;52.002;5.464;2023-04-30T12:11:24;102029.22;;;22.50;37.70
55187;BME280;55457;52.002;5.464;2023-04-30T12:13:54;102035.34;;;22.45;37.53
55187;BME280;55457;52.002;5.464;2023-04-30T12:16:20;102031.47;;;22.53;37.49
55187;BME280;55457;52.002;5.464;2023-04-30T12:18:46;102025.09;;;22.47;37.73
55187;BME280;55457;52.002;5.464;2023-04-30T12:21:11;102024.34;;;22.40;37.77
55187;BME280;55457;52.002;5.464;2023-04-30T12:23:37;102026.00;;;22.41;38.04
55187;BME280;55457;52.002;5.464;2023-04-30T12:26:03;102019.34;;;22.37;37.59
55187;BME280;55457;52.002;5.464;2023-04-30T12:28:28;102026.28;;;22.33;37.83
55187;BME280;55457;52.002;5.464;2023-04-30T12:30:53;102027.81;;;22.29;37.97
55187;BME280;55457;52.002;5.464;2023-04-30T12:33:19;102024.22;;;22.35;37.75
55187;BME280;55457;52.002;5.464;2023-04-30T12:35:44;102022.66;;;22.39;38.02
55187;BME280;55457;52.002;5.464;2023-04-30T12:38:12;102016.19;;;22.40;37.66
55187;BME280;55457;52.002;5.464;2023-04-30T12:40:45;102016.34;;;22.45;37.67
55187;BME280;55457;52.002;5.464;2023-04-30T12:43:14;102008.78;;;22.47;37.92
55187;BME280;55457;52.002;5.464;2023-04-30T12:45:52;102008.34;;;22.50;37.86
55187;BME280;55457;52.002;5.464;2023-04-30T12:48:22;102018.00;;;22.46;37.89
55187;BME280;55457;52.002;5.464;2023-04-30T12:50:57;102006.38;;;22.39;37.84
55187;BME280;55457;52.002;5.464;2023-04-30T12:53:23;102006.22;;;22.34;37.99
55187;BME280;55457;52.002;5.464;2023-04-30T12:56:10;102003.38;;;22.29;37.80
55187;BME280;55457;52.002;5.464;2023-04-30T12:58:46;102005.94;;;22.24;38.14
55187;BME280;55457;52.002;5.464;2023-04-30T13:01:21;102003.09;;;22.19;37.79
55187;BME280;55457;52.002;5.464;2023-04-30T13:03:50;101999.75;;;22.17;37.73
55187;BME280;55457;52.002;5.464;2023-04-30T13:06:16;101993.38;;;22.11;38.36